Beltdiep — PBYF — position and weather

sailwx.info

Track history (hours):
 
Tides and Currents Weather Stations Pressure Air Temp Water Temp Dewpoint Dewpoint Depression Visibility Wind Speed Wind Dir Waves Ship Positions

Beltdiep

Last reported at 2015-Feb-27 11:29 UTC. Time now 2015-Feb-28 02:02 UTC.
Position N 43°45' W 006°02'.

Length 107 m; draft 4.9 m.

Type: Cargo ship. MMSI: 246671000.

Date/timePositionNaut miles runAvg speedWind from/ knotsBaromVisibWave heightAir tempDewpointWater temp
2015-Feb-27 11:29N 43°45' W 006°02'9 9.6
2015-Feb-27 10:33N 43°45' W 005°49'10 9.7
2015-Feb-27 09:33N 43°44' W 005°36'6 5.5
2015-Feb-27 08:26N 43°44' W 005°27'7 7.6
2015-Feb-27 07:27N 43°43' W 005°17'12 9.1
2015-Feb-27 06:07N 43°43' W 005°00'6 8.9
2015-Feb-27 05:24N 43°42' W 004°52'65 8.0
2015-Feb-26 21:20N 43°38' W 003°23'5 6.7
2015-Feb-26 20:33N 43°38' W 003°16'65 6.5
2015-Feb-26 10:33N 43°33' W 001°46'8 7.7
2015-Feb-26 09:33N 43°33' W 001°35'5 4.8
2015-Feb-26 08:33N 43°30' W 001°29'0 0.0
2015-Feb-26 07:33N 43°30' W 001°29'0 0.0
2015-Feb-26 06:32N 43°30' W 001°29'0 0.0
2015-Feb-26 05:32N 43°30' W 001°29'0 0.0
2015-Feb-26 04:32N 43°30' W 001°29'0 0.0
2015-Feb-26 03:31N 43°30' W 001°29'0 0.0
2015-Feb-26 02:31N 43°30' W 001°29'0 0.0
2015-Feb-26 01:33N 43°30' W 001°29'0 0.0
2015-Feb-26 00:33N 43°30' W 001°29'0 0.0
2015-Feb-25 23:32N 43°30' W 001°29'0 0.0
2015-Feb-25 22:32N 43°30' W 001°29'0 0.0
2015-Feb-25 21:31N 43°30' W 001°29'0 0.0
2015-Feb-25 20:31N 43°30' W 001°29'0 0.0
2015-Feb-25 19:31N 43°30' W 001°29'0 0.0
2015-Feb-25 18:33N 43°30' W 001°29'0 0.0
2015-Feb-25 17:33N 43°30' W 001°29'0 0.0
2015-Feb-25 16:29N 43°30' W 001°29'0 0.0
2015-Feb-25 15:32N 43°30' W 001°29'0 0.0
2015-Feb-25 14:31N 43°30' W 001°29'0 0.0
2015-Feb-25 13:31N 43°30' W 001°29'0 0.0
2015-Feb-25 12:31N 43°30' W 001°29'0 0.0
2015-Feb-25 11:33N 43°30' W 001°29'0 0.0
2015-Feb-25 10:33N 43°30' W 001°29'0 0.0
2015-Feb-25 09:32N 43°30' W 001°29'0 0.0
2015-Feb-25 08:32N 43°30' W 001°29'0 0.0
2015-Feb-25 07:31N 43°30' W 001°29'0 0.0
2015-Feb-25 06:31N 43°30' W 001°29'0 0.0
2015-Feb-25 05:31N 43°30' W 001°29'0 0.0
2015-Feb-25 04:33N 43°30' W 001°29'0 0.0
2015-Feb-25 03:33N 43°30' W 001°29'0 0.0
2015-Feb-25 02:32N 43°30' W 001°29'0 0.0
2015-Feb-25 01:32N 43°30' W 001°29'0 0.0
2015-Feb-25 00:31N 43°30' W 001°29'0 0.0
2015-Feb-24 23:31N 43°30' W 001°29'0 0.0
2015-Feb-24 22:31N 43°30' W 001°29'0 0.0
2015-Feb-24 21:33N 43°30' W 001°29'0 0.0
2015-Feb-24 20:33N 43°30' W 001°29'0 0.0
2015-Feb-24 19:32N 43°30' W 001°29'0 0.0
2015-Feb-24 18:32N 43°30' W 001°29'0 0.0
2015-Feb-24 17:31N 43°30' W 001°29'0 0.0
2015-Feb-24 16:31N 43°30' W 001°29'0 0.0
2015-Feb-24 15:31N 43°30' W 001°29'0 0.0
2015-Feb-24 14:33N 43°30' W 001°29'0 0.0
2015-Feb-24 13:30N 43°30' W 001°29'0 0.0
2015-Feb-24 12:32N 43°30' W 001°29'0 0.0
2015-Feb-24 11:32N 43°30' W 001°29'0 0.0
2015-Feb-24 10:28N 43°30' W 001°29'0 0.0
2015-Feb-24 09:28N 43°30' W 001°29'0 0.0
2015-Feb-24 08:34N 43°30' W 001°29'0 0.0
2015-Feb-24 07:30N 43°30' W 001°29'0 0.0
2015-Feb-24 06:30N 43°30' W 001°29'0 0.0
2015-Feb-24 05:32N 43°30' W 001°29'0 0.0
2015-Feb-24 04:32N 43°30' W 001°29'0 0.0
2015-Feb-24 03:31N 43°30' W 001°29'0 0.0
2015-Feb-24 02:31N 43°30' W 001°29'0 0.0
2015-Feb-24 01:33N 43°30' W 001°29'0 0.0
2015-Feb-24 00:33N 43°30' W 001°29'0 0.0
2015-Feb-23 23:33N 43°30' W 001°29'0 0.0
2015-Feb-23 22:32N 43°30' W 001°29'0 0.0
2015-Feb-23 21:32N 43°30' W 001°29'0 0.0
2015-Feb-23 20:31N 43°30' W 001°29'0 0.0
2015-Feb-23 19:28N 43°30' W 001°29'0 0.0
2015-Feb-23 18:33N 43°30' W 001°29'0 0.0
2015-Feb-23 17:33N 43°30' W 001°29'0 0.0
2015-Feb-23 16:33N 43°30' W 001°29'0 0.0
2015-Feb-23 15:32N 43°30' W 001°29'0 0.0
2015-Feb-23 14:32N 43°30' W 001°29'0 0.0
2015-Feb-23 13:31N 43°30' W 001°29'0 0.0
2015-Feb-23 12:31N 43°30' W 001°29'0 0.0
2015-Feb-23 11:33N 43°30' W 001°29'0 0.0
2015-Feb-23 10:33N 43°30' W 001°29'0 0.0
2015-Feb-23 09:33N 43°30' W 001°29'0 0.0
2015-Feb-23 08:32N 43°30' W 001°29'0 0.0
2015-Feb-23 07:32N 43°30' W 001°29'0 0.0
2015-Feb-23 06:31N 43°30' W 001°29'0 0.0
2015-Feb-23 05:31N 43°30' W 001°29'0 0.0
2015-Feb-23 04:33N 43°30' W 001°29'0 0.0
2015-Feb-23 03:33N 43°30' W 001°29'0 0.0
2015-Feb-23 02:26N 43°30' W 001°29'0 0.0
2015-Feb-23 01:32N 43°30' W 001°29'0 0.0
2015-Feb-23 00:32N 43°30' W 001°29'0 0.0
2015-Feb-22 23:31N 43°30' W 001°29'0 0.0
2015-Feb-22 22:31N 43°30' W 001°29'0 0.0
2015-Feb-22 21:33N 43°30' W 001°29'0 0.0
2015-Feb-22 20:33N 43°30' W 001°29'0 0.0
2015-Feb-22 19:33N 43°30' W 001°29'0 0.0
2015-Feb-22 18:32N 43°30' W 001°29'0 0.0
2015-Feb-22 17:32N 43°30' W 001°29'0 0.0
2015-Feb-22 16:31N 43°30' W 001°29'0 0.0
2015-Feb-22 15:31N 43°30' W 001°29'0 0.0
2015-Feb-22 14:33N 43°30' W 001°29'0 0.0
2015-Feb-22 13:33N 43°30' W 001°29'0 0.0
2015-Feb-22 12:32N 43°30' W 001°29'0 0.0
2015-Feb-22 11:32N 43°30' W 001°29'0 0.0
2015-Feb-22 10:32N 43°30' W 001°29'0 0.0
2015-Feb-22 09:31N 43°30' W 001°29'0 0.0
2015-Feb-22 08:31N 43°30' W 001°29'0 0.0
2015-Feb-22 07:33N 43°30' W 001°29'0 0.0
2015-Feb-22 06:33N 43°30' W 001°29'0 0.0
2015-Feb-22 05:32N 43°30' W 001°29'0 0.0
2015-Feb-22 04:32N 43°30' W 001°29'0 0.0
2015-Feb-22 03:32N 43°30' W 001°29'0 0.0
2015-Feb-22 02:31N 43°30' W 001°29'0 0.0
2015-Feb-22 01:31N 43°30' W 001°29'0 0.0
2015-Feb-22 00:33N 43°30' W 001°29'0 0.0
2015-Feb-21 23:33N 43°30' W 001°29'0 0.0
2015-Feb-21 22:32N 43°30' W 001°29'0 0.0
2015-Feb-21 21:32N 43°30' W 001°29'0 0.0
2015-Feb-21 20:32N 43°30' W 001°29'0 0.0
2015-Feb-21 19:31N 43°30' W 001°29'0 0.0
2015-Feb-21 18:28N 43°30' W 001°29'0 0.0
2015-Feb-21 17:33N 43°30' W 001°29'0 0.0
2015-Feb-21 16:33N 43°30' W 001°29'0 0.0
2015-Feb-21 15:32N 43°30' W 001°29'0 0.0
2015-Feb-21 14:32N 43°30' W 001°29'0 0.0
2015-Feb-21 13:32N 43°30' W 001°29'0 0.0
2015-Feb-21 12:31N 43°30' W 001°29'0 0.0
2015-Feb-21 11:31N 43°30' W 001°29'0 0.0
2015-Feb-21 10:33N 43°30' W 001°29'0 0.0
2015-Feb-21 09:33N 43°30' W 001°29'0 0.0
2015-Feb-21 08:32N 43°30' W 001°29'0 0.0
2015-Feb-21 07:33N 43°30' W 001°29'2 1.8
2015-Feb-21 06:33N 43°32' W 001°31'4 3.6
2015-Feb-21 05:33N 43°35' W 001°34'6 5.7
2015-Feb-21 04:32N 43°41' W 001°34'44 6.3
2015-Feb-20 21:34N 44°24' W 001°39'7 6.6
2015-Feb-20 20:33N 44°31' W 001°40'7 7.0
2015-Feb-20 19:33N 44°38' W 001°40'7 6.7
2015-Feb-20 18:33N 44°45' W 001°41'7 6.5
2015-Feb-20 17:32N 44°51' W 001°42'82 7.4
2015-Feb-20 06:27N 46°13' W 001°50'1010.8
2015-Feb-20 05:33N 46°23' W 001°51'7 7.4
2015-Feb-20 04:33N 46°30' W 001°48'0 0.1
2015-Feb-20 03:32N 46°30' W 001°48'0 0.0
2015-Feb-20 02:32N 46°30' W 001°48'0 0.0
2015-Feb-20 01:31N 46°30' W 001°48'0 0.0
2015-Feb-20 00:31N 46°30' W 001°48'0 0.0
2015-Feb-19 23:33N 46°30' W 001°48'0 0.0
2015-Feb-19 22:33N 46°30' W 001°48'0 0.0
2015-Feb-19 21:32N 46°30' W 001°48'0 0.0
2015-Feb-19 20:32N 46°30' W 001°48'0 0.0
2015-Feb-19 19:32N 46°30' W 001°48'0 0.0
2015-Feb-19 18:31N 46°30' W 001°48'0 0.0
2015-Feb-19 17:31N 46°30' W 001°48'0 0.0
2015-Feb-19 16:33N 46°30' W 001°48'0 0.0
2015-Feb-19 15:33N 46°30' W 001°48'0 0.0
2015-Feb-19 14:32N 46°30' W 001°48'0 0.0
2015-Feb-19 13:32N 46°30' W 001°48'0 0.0
2015-Feb-19 12:32N 46°30' W 001°48'0 0.0
2015-Feb-19 11:31N 46°30' W 001°48'0 0.0
2015-Feb-19 10:31N 46°30' W 001°48'0 0.0
2015-Feb-19 09:33N 46°30' W 001°48'0 0.0
2015-Feb-19 08:33N 46°30' W 001°48'0 0.0
2015-Feb-19 07:32N 46°30' W 001°48'0 0.0
2015-Feb-19 06:32N 46°30' W 001°48'0 0.0
2015-Feb-19 05:32N 46°30' W 001°48'0 0.0
2015-Feb-19 04:31N 46°30' W 001°48'0 0.0
2015-Feb-19 03:31N 46°30' W 001°48'0 0.0
2015-Feb-19 02:33N 46°30' W 001°48'0 0.0
2015-Feb-19 01:33N 46°30' W 001°48'0 0.0
2015-Feb-19 00:32N 46°30' W 001°48'0 0.0
2015-Feb-18 23:32N 46°30' W 001°48'0 0.0
2015-Feb-18 22:32N 46°30' W 001°48'0 0.0
2015-Feb-18 21:31N 46°30' W 001°48'0 0.0
2015-Feb-18 20:31N 46°30' W 001°48'0 0.0
2015-Feb-18 19:33N 46°30' W 001°48'0 0.0
2015-Feb-18 18:33N 46°30' W 001°48'0 0.0
2015-Feb-18 17:32N 46°30' W 001°48'0 0.0
2015-Feb-18 16:32N 46°30' W 001°48'0 0.0
2015-Feb-18 15:31N 46°30' W 001°48'0 0.0
2015-Feb-18 14:31N 46°30' W 001°48'0 0.0
2015-Feb-18 13:31N 46°30' W 001°48'0 0.0
2015-Feb-18 12:33N 46°30' W 001°48'0 0.0
2015-Feb-18 11:33N 46°30' W 001°48'0 0.0
2015-Feb-18 10:32N 46°30' W 001°48'0 0.0
2015-Feb-18 09:32N 46°30' W 001°48'0 0.0
2015-Feb-18 08:32N 46°30' W 001°48'0 0.0
2015-Feb-18 07:31N 46°30' W 001°48'0 0.0
2015-Feb-18 06:31N 46°30' W 001°48'0 0.0
2015-Feb-18 05:33N 46°30' W 001°48'0 0.0
2015-Feb-18 04:33N 46°30' W 001°48'0 0.0
2015-Feb-18 03:32N 46°30' W 001°48'0 0.0
2015-Feb-18 02:32N 46°30' W 001°48'0 0.0
2015-Feb-18 01:31N 46°30' W 001°48'0 0.0
2015-Feb-18 00:31N 46°30' W 001°48'0 0.0
2015-Feb-17 23:31N 46°30' W 001°48'0 0.0
2015-Feb-17 22:33N 46°30' W 001°48'0 0.0
2015-Feb-17 21:33N 46°30' W 001°48'0 0.0
2015-Feb-17 20:32N 46°30' W 001°48'0 0.0
2015-Feb-17 19:32N 46°30' W 001°48'0 0.0
2015-Feb-17 17:31N 46°30' W 001°48'0 0.0
2015-Feb-17 16:31N 46°30' W 001°48'0 0.0
2015-Feb-17 15:33N 46°30' W 001°48'0 0.0
2015-Feb-17 14:34N 46°30' W 001°48'2 1.9
2015-Feb-17 13:33N 46°28' W 001°47'0 0.0
2015-Feb-17 12:33N 46°28' W 001°47'0 0.0
2015-Feb-17 11:32N 46°28' W 001°47'  
Track history (hours):
 
Tides and Currents Weather Stations Pressure Air Temp Water Temp Dewpoint Dewpoint Depression Visibility Wind Speed Wind Dir Waves Ship Positions

Beltdiep

Last reported at 2015-Feb-27 11:29 UTC. Time now 2015-Feb-28 02:02 UTC.
Position N 43°45' W 006°02'.

Length 107 m; draft 4.9 m.

Type: Cargo ship. MMSI: 246671000.

Date/timePositionNaut miles runAvg speedWind from/ knotsBaromVisibWave heightAir tempDewpointWater temp
2015-Feb-27 11:29N 43°45' W 006°02'9 9.6
2015-Feb-27 10:33N 43°45' W 005°49'10 9.7
2015-Feb-27 09:33N 43°44' W 005°36'6 5.5
2015-Feb-27 08:26N 43°44' W 005°27'7 7.6
2015-Feb-27 07:27N 43°43' W 005°17'12 9.1
2015-Feb-27 06:07N 43°43' W 005°00'6 8.9
2015-Feb-27 05:24N 43°42' W 004°52'65 8.0
2015-Feb-26 21:20N 43°38' W 003°23'5 6.7
2015-Feb-26 20:33N 43°38' W 003°16'65 6.5
2015-Feb-26 10:33N 43°33' W 001°46'8 7.7
2015-Feb-26 09:33N 43°33' W 001°35'5 4.8
2015-Feb-26 08:33N 43°30' W 001°29'0 0.0
2015-Feb-26 07:33N 43°30' W 001°29'0 0.0
2015-Feb-26 06:32N 43°30' W 001°29'0 0.0
2015-Feb-26 05:32N 43°30' W 001°29'0 0.0
2015-Feb-26 04:32N 43°30' W 001°29'0 0.0
2015-Feb-26 03:31N 43°30' W 001°29'0 0.0
2015-Feb-26 02:31N 43°30' W 001°29'0 0.0
2015-Feb-26 01:33N 43°30' W 001°29'0 0.0
2015-Feb-26 00:33N 43°30' W 001°29'0 0.0
2015-Feb-25 23:32N 43°30' W 001°29'0 0.0
2015-Feb-25 22:32N 43°30' W 001°29'0 0.0
2015-Feb-25 21:31N 43°30' W 001°29'0 0.0
2015-Feb-25 20:31N 43°30' W 001°29'0 0.0
2015-Feb-25 19:31N 43°30' W 001°29'0 0.0
2015-Feb-25 18:33N 43°30' W 001°29'0 0.0
2015-Feb-25 17:33N 43°30' W 001°29'0 0.0
2015-Feb-25 16:29N 43°30' W 001°29'0 0.0
2015-Feb-25 15:32N 43°30' W 001°29'0 0.0
2015-Feb-25 14:31N 43°30' W 001°29'0 0.0
2015-Feb-25 13:31N 43°30' W 001°29'0 0.0
2015-Feb-25 12:31N 43°30' W 001°29'0 0.0
2015-Feb-25 11:33N 43°30' W 001°29'0 0.0
2015-Feb-25 10:33N 43°30' W 001°29'0 0.0
2015-Feb-25 09:32N 43°30' W 001°29'0 0.0
2015-Feb-25 08:32N 43°30' W 001°29'0 0.0
2015-Feb-25 07:31N 43°30' W 001°29'0 0.0
2015-Feb-25 06:31N 43°30' W 001°29'0 0.0
2015-Feb-25 05:31N 43°30' W 001°29'0 0.0
2015-Feb-25 04:33N 43°30' W 001°29'0 0.0
2015-Feb-25 03:33N 43°30' W 001°29'0 0.0
2015-Feb-25 02:32N 43°30' W 001°29'0 0.0
2015-Feb-25 01:32N 43°30' W 001°29'0 0.0
2015-Feb-25 00:31N 43°30' W 001°29'0 0.0
2015-Feb-24 23:31N 43°30' W 001°29'0 0.0
2015-Feb-24 22:31N 43°30' W 001°29'0 0.0
2015-Feb-24 21:33N 43°30' W 001°29'0 0.0
2015-Feb-24 20:33N 43°30' W 001°29'0 0.0
2015-Feb-24 19:32N 43°30' W 001°29'0 0.0
2015-Feb-24 18:32N 43°30' W 001°29'0 0.0
2015-Feb-24 17:31N 43°30' W 001°29'0 0.0
2015-Feb-24 16:31N 43°30' W 001°29'0 0.0
2015-Feb-24 15:31N 43°30' W 001°29'0 0.0
2015-Feb-24 14:33N 43°30' W 001°29'0 0.0
2015-Feb-24 13:30N 43°30' W 001°29'0 0.0
2015-Feb-24 12:32N 43°30' W 001°29'0 0.0
2015-Feb-24 11:32N 43°30' W 001°29'0 0.0
2015-Feb-24 10:28N 43°30' W 001°29'0 0.0
2015-Feb-24 09:28N 43°30' W 001°29'0 0.0
2015-Feb-24 08:34N 43°30' W 001°29'0 0.0
2015-Feb-24 07:30N 43°30' W 001°29'0 0.0
2015-Feb-24 06:30N 43°30' W 001°29'0 0.0
2015-Feb-24 05:32N 43°30' W 001°29'0 0.0
2015-Feb-24 04:32N 43°30' W 001°29'0 0.0
2015-Feb-24 03:31N 43°30' W 001°29'0 0.0
2015-Feb-24 02:31N 43°30' W 001°29'0 0.0
2015-Feb-24 01:33N 43°30' W 001°29'0 0.0
2015-Feb-24 00:33N 43°30' W 001°29'0 0.0
2015-Feb-23 23:33N 43°30' W 001°29'0 0.0
2015-Feb-23 22:32N 43°30' W 001°29'0 0.0
2015-Feb-23 21:32N 43°30' W 001°29'0 0.0
2015-Feb-23 20:31N 43°30' W 001°29'0 0.0
2015-Feb-23 19:28N 43°30' W 001°29'0 0.0
2015-Feb-23 18:33N 43°30' W 001°29'0 0.0
2015-Feb-23 17:33N 43°30' W 001°29'0 0.0
2015-Feb-23 16:33N 43°30' W 001°29'0 0.0
2015-Feb-23 15:32N 43°30' W 001°29'0 0.0
2015-Feb-23 14:32N 43°30' W 001°29'0 0.0
2015-Feb-23 13:31N 43°30' W 001°29'0 0.0
2015-Feb-23 12:31N 43°30' W 001°29'0 0.0
2015-Feb-23 11:33N 43°30' W 001°29'0 0.0
2015-Feb-23 10:33N 43°30' W 001°29'0 0.0
2015-Feb-23 09:33N 43°30' W 001°29'0 0.0
2015-Feb-23 08:32N 43°30' W 001°29'0 0.0
2015-Feb-23 07:32N 43°30' W 001°29'0 0.0
2015-Feb-23 06:31N 43°30' W 001°29'0 0.0
2015-Feb-23 05:31N 43°30' W 001°29'0 0.0
2015-Feb-23 04:33N 43°30' W 001°29'0 0.0
2015-Feb-23 03:33N 43°30' W 001°29'0 0.0
2015-Feb-23 02:26N 43°30' W 001°29'0 0.0
2015-Feb-23 01:32N 43°30' W 001°29'0 0.0
2015-Feb-23 00:32N 43°30' W 001°29'0 0.0
2015-Feb-22 23:31N 43°30' W 001°29'0 0.0
2015-Feb-22 22:31N 43°30' W 001°29'0 0.0
2015-Feb-22 21:33N 43°30' W 001°29'0 0.0
2015-Feb-22 20:33N 43°30' W 001°29'0 0.0
2015-Feb-22 19:33N 43°30' W 001°29'0 0.0
2015-Feb-22 18:32N 43°30' W 001°29'0 0.0
2015-Feb-22 17:32N 43°30' W 001°29'0 0.0
2015-Feb-22 16:31N 43°30' W 001°29'0 0.0
2015-Feb-22 15:31N 43°30' W 001°29'0 0.0
2015-Feb-22 14:33N 43°30' W 001°29'0 0.0
2015-Feb-22 13:33N 43°30' W 001°29'0 0.0
2015-Feb-22 12:32N 43°30' W 001°29'0 0.0
2015-Feb-22 11:32N 43°30' W 001°29'0 0.0
2015-Feb-22 10:32N 43°30' W 001°29'0 0.0
2015-Feb-22 09:31N 43°30' W 001°29'0 0.0
2015-Feb-22 08:31N 43°30' W 001°29'0 0.0
2015-Feb-22 07:33N 43°30' W 001°29'0 0.0
2015-Feb-22 06:33N 43°30' W 001°29'0 0.0
2015-Feb-22 05:32N 43°30' W 001°29'0 0.0
2015-Feb-22 04:32N 43°30' W 001°29'0 0.0
2015-Feb-22 03:32N 43°30' W 001°29'0 0.0
2015-Feb-22 02:31N 43°30' W 001°29'0 0.0
2015-Feb-22 01:31N 43°30' W 001°29'0 0.0
2015-Feb-22 00:33N 43°30' W 001°29'0 0.0
2015-Feb-21 23:33N 43°30' W 001°29'0 0.0
2015-Feb-21 22:32N 43°30' W 001°29'0 0.0
2015-Feb-21 21:32N 43°30' W 001°29'0 0.0
2015-Feb-21 20:32N 43°30' W 001°29'0 0.0
2015-Feb-21 19:31N 43°30' W 001°29'0 0.0
2015-Feb-21 18:28N 43°30' W 001°29'0 0.0
2015-Feb-21 17:33N 43°30' W 001°29'0 0.0
2015-Feb-21 16:33N 43°30' W 001°29'0 0.0
2015-Feb-21 15:32N 43°30' W 001°29'0 0.0
2015-Feb-21 14:32N 43°30' W 001°29'0 0.0
2015-Feb-21 13:32N 43°30' W 001°29'0 0.0
2015-Feb-21 12:31N 43°30' W 001°29'0 0.0
2015-Feb-21 11:31N 43°30' W 001°29'0 0.0
2015-Feb-21 10:33N 43°30' W 001°29'0 0.0
2015-Feb-21 09:33N 43°30' W 001°29'0 0.0
2015-Feb-21 08:32N 43°30' W 001°29'0 0.0
2015-Feb-21 07:33N 43°30' W 001°29'2 1.8
2015-Feb-21 06:33N 43°32' W 001°31'4 3.6
2015-Feb-21 05:33N 43°35' W 001°34'6 5.7
2015-Feb-21 04:32N 43°41' W 001°34'44 6.3
2015-Feb-20 21:34N 44°24' W 001°39'7 6.6
2015-Feb-20 20:33N 44°31' W 001°40'7 7.0
2015-Feb-20 19:33N 44°38' W 001°40'7 6.7
2015-Feb-20 18:33N 44°45' W 001°41'7 6.5
2015-Feb-20 17:32N 44°51' W 001°42'82 7.4
2015-Feb-20 06:27N 46°13' W 001°50'1010.8
2015-Feb-20 05:33N 46°23' W 001°51'7 7.4
2015-Feb-20 04:33N 46°30' W 001°48'0 0.1
2015-Feb-20 03:32N 46°30' W 001°48'0 0.0
2015-Feb-20 02:32N 46°30' W 001°48'0 0.0
2015-Feb-20 01:31N 46°30' W 001°48'0 0.0
2015-Feb-20 00:31N 46°30' W 001°48'0 0.0
2015-Feb-19 23:33N 46°30' W 001°48'0 0.0
2015-Feb-19 22:33N 46°30' W 001°48'0 0.0
2015-Feb-19 21:32N 46°30' W 001°48'0 0.0
2015-Feb-19 20:32N 46°30' W 001°48'0 0.0
2015-Feb-19 19:32N 46°30' W 001°48'0 0.0
2015-Feb-19 18:31N 46°30' W 001°48'0 0.0
2015-Feb-19 17:31N 46°30' W 001°48'0 0.0
2015-Feb-19 16:33N 46°30' W 001°48'0 0.0
2015-Feb-19 15:33N 46°30' W 001°48'0 0.0
2015-Feb-19 14:32N 46°30' W 001°48'0 0.0
2015-Feb-19 13:32N 46°30' W 001°48'0 0.0
2015-Feb-19 12:32N 46°30' W 001°48'0 0.0
2015-Feb-19 11:31N 46°30' W 001°48'0 0.0
2015-Feb-19 10:31N 46°30' W 001°48'0 0.0
2015-Feb-19 09:33N 46°30' W 001°48'0 0.0
2015-Feb-19 08:33N 46°30' W 001°48'0 0.0
2015-Feb-19 07:32N 46°30' W 001°48'0 0.0
2015-Feb-19 06:32N 46°30' W 001°48'0 0.0
2015-Feb-19 05:32N 46°30' W 001°48'0 0.0
2015-Feb-19 04:31N 46°30' W 001°48'0 0.0
2015-Feb-19 03:31N 46°30' W 001°48'0 0.0
2015-Feb-19 02:33N 46°30' W 001°48'0 0.0
2015-Feb-19 01:33N 46°30' W 001°48'0 0.0
2015-Feb-19 00:32N 46°30' W 001°48'0 0.0
2015-Feb-18 23:32N 46°30' W 001°48'0 0.0
2015-Feb-18 22:32N 46°30' W 001°48'0 0.0
2015-Feb-18 21:31N 46°30' W 001°48'0 0.0
2015-Feb-18 20:31N 46°30' W 001°48'0 0.0
2015-Feb-18 19:33N 46°30' W 001°48'0 0.0
2015-Feb-18 18:33N 46°30' W 001°48'0 0.0
2015-Feb-18 17:32N 46°30' W 001°48'0 0.0
2015-Feb-18 16:32N 46°30' W 001°48'0 0.0
2015-Feb-18 15:31N 46°30' W 001°48'0 0.0
2015-Feb-18 14:31N 46°30' W 001°48'0 0.0
2015-Feb-18 13:31N 46°30' W 001°48'0 0.0
2015-Feb-18 12:33N 46°30' W 001°48'0 0.0
2015-Feb-18 11:33N 46°30' W 001°48'0 0.0
2015-Feb-18 10:32N 46°30' W 001°48'0 0.0
2015-Feb-18 09:32N 46°30' W 001°48'0 0.0
2015-Feb-18 08:32N 46°30' W 001°48'0 0.0
2015-Feb-18 07:31N 46°30' W 001°48'0 0.0
2015-Feb-18 06:31N 46°30' W 001°48'0 0.0
2015-Feb-18 05:33N 46°30' W 001°48'0 0.0
2015-Feb-18 04:33N 46°30' W 001°48'0 0.0
2015-Feb-18 03:32N 46°30' W 001°48'0 0.0
2015-Feb-18 02:32N 46°30' W 001°48'0 0.0
2015-Feb-18 01:31N 46°30' W 001°48'0 0.0
2015-Feb-18 00:31N 46°30' W 001°48'0 0.0
2015-Feb-17 23:31N 46°30' W 001°48'0 0.0
2015-Feb-17 22:33N 46°30' W 001°48'0 0.0
2015-Feb-17 21:33N 46°30' W 001°48'0 0.0
2015-Feb-17 20:32N 46°30' W 001°48'0 0.0
2015-Feb-17 19:32N 46°30' W 001°48'0 0.0
2015-Feb-17 17:31N 46°30' W 001°48'0 0.0
2015-Feb-17 16:31N 46°30' W 001°48'0 0.0
2015-Feb-17 15:33N 46°30' W 001°48'0 0.0
2015-Feb-17 14:34N 46°30' W 001°48'2 1.9
2015-Feb-17 13:33N 46°28' W 001°47'0 0.0
2015-Feb-17 12:33N 46°28' W 001°47'0 0.0
2015-Feb-17 11:32N 46°28' W 001°47'  

Dump ship's entire track history